createdAt,value
2022-08-14T00:00:42.814Z,27.27
2022-08-14T00:03:19.928Z,27.27
2022-08-14T00:05:58.391Z,27.27
2022-08-14T00:08:45.233Z,27.26
2022-08-14T00:11:12.517Z,27.26
2022-08-14T00:13:39.858Z,27.28
2022-08-14T00:16:07.854Z,27.27
2022-08-14T00:19:06.152Z,27.28
2022-08-14T00:21:22.429Z,27.27
2022-08-14T00:24:01.751Z,27.28
2022-08-14T00:26:29.247Z,27.26
2022-08-14T00:28:56.182Z,27.26
2022-08-14T00:31:44.221Z,27.27
2022-08-14T00:34:36.684Z,27.27
2022-08-14T00:36:59.323Z,27.27
2022-08-14T00:39:26.362Z,27.27
2022-08-14T00:41:54.252Z,27.26
2022-08-14T00:44:27.539Z,27.26
2022-08-14T00:47:00.200Z,27.29
2022-08-14T00:49:30.238Z,27.28
2022-08-14T00:51:58.113Z,27.26
2022-08-14T00:54:25.420Z,27.25
2022-08-14T00:56:55.235Z,27.29
2022-08-14T00:59:23.582Z,27.27
2022-08-14T01:01:56.858Z,27.28
2022-08-14T01:04:50.864Z,27.28
2022-08-14T01:07:21.518Z,27.30
2022-08-14T01:09:52.919Z,27.29
2022-08-14T01:12:40.480Z,27.29
2022-08-14T01:15:07.599Z,27.27
2022-08-14T01:17:55.364Z,27.27
2022-08-14T01:20:41.390Z,27.26
2022-08-14T01:23:16.299Z,27.28
2022-08-14T01:25:46.622Z,27.26
2022-08-14T01:28:46.351Z,27.26
2022-08-14T01:31:01.792Z,27.24
2022-08-14T01:33:30.364Z,27.25
2022-08-14T01:36:05.268Z,27.23
2022-08-14T01:38:37.385Z,27.26
2022-08-14T01:41:14.794Z,27.24
2022-08-14T01:43:45.353Z,27.23
2022-08-14T01:46:24.904Z,27.25
2022-08-14T01:48:56.217Z,27.28
2022-08-14T01:51:24.649Z,27.25
2022-08-14T01:53:54.702Z,27.25
2022-08-14T01:56:23.341Z,27.26
2022-08-14T01:58:57.908Z,27.24
2022-08-14T02:01:26.519Z,27.23
2022-08-14T02:03:57.256Z,27.22
2022-08-14T02:06:32.116Z,27.24
2022-08-14T02:09:03.243Z,27.25
2022-08-14T02:11:48.475Z,27.26
2022-08-14T02:14:31.008Z,27.26
2022-08-14T02:16:58.856Z,27.22
2022-08-14T02:19:27.994Z,27.24
2022-08-14T02:22:02.879Z,27.24
2022-08-14T02:24:39.971Z,27.25
2022-08-14T02:28:24.234Z,27.23
2022-08-14T02:29:59.938Z,27.22
2022-08-14T02:32:35.885Z,27.22
2022-08-14T02:35:17.990Z,27.23
2022-08-14T02:37:49.515Z,27.22
2022-08-14T02:40:19.898Z,27.18
2022-08-14T02:42:54.950Z,27.18
2022-08-14T02:45:25.085Z,27.19
2022-08-14T02:48:10.568Z,27.20
2022-08-14T02:50:54.924Z,27.18
2022-08-14T02:53:22.294Z,27.15
2022-08-14T02:55:48.972Z,27.14
2022-08-14T02:58:29.170Z,27.14
2022-08-14T03:00:58.410Z,27.13
2022-08-14T03:03:25.695Z,27.15
2022-08-14T03:05:55.667Z,27.14
2022-08-14T03:08:22.745Z,27.12
2022-08-14T03:10:52.414Z,27.12
2022-08-14T03:13:24.267Z,27.14
2022-08-14T03:15:55.215Z,27.13
2022-08-14T03:18:31.979Z,27.14
2022-08-14T03:21:03.565Z,27.13
2022-08-14T03:23:36.363Z,27.11
2022-08-14T03:26:07.362Z,27.10
2022-08-14T03:28:34.678Z,27.13
2022-08-14T03:31:04.630Z,27.15
2022-08-14T03:33:39.588Z,27.12
2022-08-14T03:37:39.353Z,27.11
2022-08-14T03:39:12.651Z,27.11
2022-08-14T03:41:47.796Z,27.10
2022-08-14T03:45:26.634Z,27.11
2022-08-14T03:47:03.006Z,27.08
2022-08-14T03:49:30.199Z,27.11
2022-08-14T03:52:18.017Z,27.07
2022-08-14T03:54:52.683Z,27.06
2022-08-14T03:57:22.789Z,27.08
2022-08-14T03:59:50.904Z,27.04
2022-08-14T04:02:46.853Z,27.06
2022-08-14T04:05:13.061Z,27.05
2022-08-14T04:08:00.199Z,27.07
2022-08-14T04:10:32.264Z,27.06
2022-08-14T04:13:03.404Z,27.07
2022-08-14T04:15:31.580Z,27.04
2022-08-14T04:18:09.352Z,27.04
2022-08-14T04:20:54.936Z,27.04
2022-08-14T04:23:32.928Z,27.03
2022-08-14T04:26:04.274Z,27.04
2022-08-14T04:29:05.273Z,27.02
2022-08-14T04:31:34.639Z,27.02
2022-08-14T04:34:06.831Z,26.99
2022-08-14T04:36:54.863Z,26.97
2022-08-14T04:39:46.790Z,27.02
2022-08-14T04:42:32.358Z,26.98
2022-08-14T04:45:00.911Z,27.01
2022-08-14T04:47:46.594Z,26.98
2022-08-14T04:50:13.539Z,26.97
2022-08-14T04:52:40.902Z,26.98
2022-08-14T04:55:09.340Z,26.99
2022-08-14T04:57:39.020Z,26.97
2022-08-14T05:00:07.319Z,26.96
2022-08-14T05:02:43.405Z,26.97
2022-08-14T05:05:10.382Z,26.93
2022-08-14T05:07:54.250Z,26.93
2022-08-14T05:10:26.258Z,26.93
2022-08-14T05:13:21.150Z,26.97
2022-08-14T05:15:48.031Z,26.93
2022-08-14T05:18:37.143Z,26.91
2022-08-14T05:21:59.634Z,26.93
2022-08-14T05:23:55.459Z,26.93
2022-08-14T05:26:22.323Z,26.88
2022-08-14T05:28:49.128Z,26.90
2022-08-14T05:31:20.327Z,26.89
2022-08-14T05:33:56.463Z,26.90
2022-08-14T05:36:24.081Z,26.89
2022-08-14T05:38:51.238Z,26.89
2022-08-14T05:41:20.245Z,26.87
2022-08-14T05:43:49.462Z,26.86
2022-08-14T05:46:24.531Z,26.87
2022-08-14T05:48:53.393Z,26.86
2022-08-14T05:51:21.186Z,26.86
2022-08-14T05:54:00.062Z,26.89
2022-08-14T05:56:36.767Z,26.85
2022-08-14T05:59:03.931Z,26.85
2022-08-14T06:01:31.778Z,26.86
2022-08-14T06:03:58.744Z,26.87
2022-08-14T06:06:25.388Z,26.83
2022-08-14T06:08:52.936Z,26.81
2022-08-14T06:11:23.971Z,26.83
2022-08-14T06:13:58.861Z,26.84
2022-08-14T06:16:25.513Z,26.81
2022-08-14T06:18:53.282Z,26.82
2022-08-14T06:21:23.253Z,26.81
2022-08-14T06:23:50.186Z,26.80
2022-08-14T06:26:20.740Z,26.82
2022-08-14T06:28:47.958Z,26.79
2022-08-14T06:31:19.200Z,26.82
2022-08-14T06:35:04.236Z,26.82
2022-08-14T06:36:33.893Z,26.78
2022-08-14T06:39:00.560Z,26.77
2022-08-14T06:41:57.912Z,26.79
2022-08-14T06:44:15.827Z,26.80
2022-08-14T06:46:42.516Z,26.80
2022-08-14T06:49:16.177Z,26.80
2022-08-14T06:51:46.936Z,26.78
2022-08-14T06:54:16.628Z,26.79
2022-08-14T06:56:44.251Z,26.77
2022-08-14T06:59:19.113Z,26.75
2022-08-14T07:02:05.613Z,26.77
2022-08-14T07:04:58.699Z,26.76
2022-08-14T07:07:25.398Z,26.78
2022-08-14T07:09:55.650Z,26.78
2022-08-14T07:12:54.741Z,26.78
2022-08-14T07:15:09.324Z,26.78
2022-08-14T07:17:44.633Z,26.77
2022-08-14T07:20:11.426Z,26.74
2022-08-14T07:22:56.364Z,26.74
2022-08-14T07:25:32.996Z,26.79
2022-08-14T07:28:20.866Z,26.78
2022-08-14T07:30:50.891Z,26.81
2022-08-14T07:33:24.280Z,26.79
2022-08-14T07:35:58.593Z,26.79
2022-08-14T07:38:30.774Z,26.75
2022-08-14T07:41:02.642Z,26.76
2022-08-14T07:43:29.906Z,26.77
2022-08-14T07:45:56.631Z,26.79
2022-08-14T07:48:25.017Z,26.79
2022-08-14T07:50:52.305Z,26.81
2022-08-14T07:53:22.485Z,26.80
2022-08-14T07:56:00.212Z,26.80
2022-08-14T07:58:38.878Z,26.82
2022-08-14T08:01:20.022Z,26.79
2022-08-14T08:03:49.482Z,26.81
2022-08-14T08:06:25.150Z,26.81
2022-08-14T08:09:01.252Z,26.80
2022-08-14T08:11:34.887Z,26.80
2022-08-14T08:14:16.296Z,26.79
2022-08-14T08:16:45.309Z,26.80
2022-08-14T08:19:14.345Z,26.83
2022-08-14T08:21:43.642Z,26.82
2022-08-14T08:24:10.667Z,26.83
2022-08-14T08:26:39.284Z,26.83
2022-08-14T08:29:07.255Z,26.82
2022-08-14T08:31:35.359Z,26.82
2022-08-14T08:34:05.420Z,26.82
2022-08-14T08:36:40.187Z,26.83
2022-08-14T08:39:14.785Z,26.84
2022-08-14T08:41:50.524Z,26.84
2022-08-14T08:44:31.553Z,26.85
2022-08-14T08:47:05.774Z,26.85
2022-08-14T08:49:48.678Z,26.87
2022-08-14T08:52:28.999Z,26.87
2022-08-14T08:54:58.179Z,26.87
2022-08-14T08:57:25.580Z,26.89
2022-08-14T08:59:54.628Z,26.86
2022-08-14T09:02:22.762Z,26.87
2022-08-14T09:05:01.757Z,26.89
2022-08-14T09:07:28.377Z,26.87
2022-08-14T09:09:59.732Z,26.88
2022-08-14T09:12:32.329Z,26.92
2022-08-14T09:15:12.077Z,26.91
2022-08-14T09:17:41.330Z,26.92
2022-08-14T09:20:11.828Z,26.91
2022-08-14T09:22:42.585Z,26.93
2022-08-14T09:25:15.345Z,26.94
2022-08-14T09:27:42.110Z,26.93
2022-08-14T09:30:12.861Z,26.95
2022-08-14T09:33:09.078Z,26.95
2022-08-14T09:35:44.451Z,26.97
2022-08-14T09:38:27.246Z,26.95
2022-08-14T09:41:13.979Z,26.98
2022-08-14T09:43:57.591Z,26.97
2022-08-14T09:46:27.932Z,26.98
2022-08-14T09:49:01.424Z,26.99
2022-08-14T09:51:32.868Z,27.02
2022-08-14T09:54:18.852Z,27.01
2022-08-14T09:56:57.419Z,27.05
2022-08-14T09:59:28.201Z,27.06
2022-08-14T10:01:59.394Z,27.11
2022-08-14T10:04:36.090Z,27.13
2022-08-14T10:07:08.221Z,27.15
2022-08-14T10:10:00.106Z,27.17
2022-08-14T10:12:52.931Z,27.20
2022-08-14T10:15:22.499Z,27.24
2022-08-14T10:17:53.439Z,27.27
2022-08-14T10:20:40.786Z,27.29
2022-08-14T10:23:16.485Z,27.29
2022-08-14T10:25:50.836Z,27.32
2022-08-14T10:29:03.394Z,27.35
2022-08-14T10:31:15.987Z,27.38
2022-08-14T10:33:42.655Z,27.38
2022-08-14T10:36:09.498Z,27.40
2022-08-14T10:38:58.388Z,27.40
2022-08-14T10:41:35.642Z,27.44
2022-08-14T10:44:21.959Z,27.45
2022-08-14T10:47:40.378Z,27.45
2022-08-14T10:49:47.587Z,27.50
2022-08-14T10:52:25.492Z,27.51
2022-08-14T10:54:56.312Z,27.51
2022-08-14T10:57:25.315Z,27.55
2022-08-14T10:59:56.181Z,27.55
2022-08-14T11:02:36.074Z,27.54
2022-08-14T11:05:18.635Z,27.56
2022-08-14T11:07:51.193Z,27.58
2022-08-14T11:10:23.166Z,27.56
2022-08-14T11:12:54.051Z,27.59
2022-08-14T11:15:22.914Z,27.58
2022-08-14T11:17:50.594Z,27.62
2022-08-14T11:20:20.109Z,27.61
2022-08-14T11:23:03.529Z,27.64
2022-08-14T11:25:41.403Z,27.63
2022-08-14T11:28:14.870Z,27.67
2022-08-14T11:30:51.369Z,27.67
2022-08-14T11:33:24.516Z,27.69
2022-08-14T11:35:51.259Z,27.68
2022-08-14T11:38:20.116Z,27.68
2022-08-14T11:40:47.686Z,27.70
2022-08-14T11:43:15.050Z,27.70
2022-08-14T11:45:45.553Z,27.73
2022-08-14T11:49:03.994Z,27.71
2022-08-14T11:51:12.893Z,27.69
2022-08-14T11:53:42.197Z,27.71
2022-08-14T11:56:11.204Z,27.73
2022-08-14T11:58:38.178Z,27.74
2022-08-14T12:01:07.133Z,27.75
2022-08-14T12:03:46.329Z,27.75
2022-08-14T12:06:29.827Z,27.76
2022-08-14T12:09:08.367Z,27.77
2022-08-14T12:11:43.429Z,27.77
2022-08-14T12:14:30.626Z,27.75
2022-08-14T12:17:11.877Z,27.75
2022-08-14T12:19:51.555Z,27.76
2022-08-14T12:22:42.346Z,27.76
2022-08-14T12:25:14.142Z,27.76
2022-08-14T12:27:51.943Z,27.77
2022-08-14T12:30:37.366Z,27.77
2022-08-14T12:33:05.814Z,27.79
2022-08-14T12:35:39.754Z,27.79
2022-08-14T12:38:09.210Z,27.78
2022-08-14T12:40:47.862Z,27.77
2022-08-14T12:43:15.411Z,27.76
2022-08-14T12:45:49.702Z,27.77
2022-08-14T12:48:21.640Z,27.77
2022-08-14T12:50:58.408Z,27.77
2022-08-14T12:53:36.223Z,27.77
2022-08-14T12:56:22.440Z,27.76
2022-08-14T12:58:59.121Z,27.79
2022-08-14T13:01:30.892Z,27.79
2022-08-14T13:04:29.766Z,27.80
2022-08-14T13:06:56.410Z,27.80
2022-08-14T13:09:36.529Z,27.79
2022-08-14T13:12:33.389Z,27.80
2022-08-14T13:14:53.015Z,27.81
2022-08-14T13:17:20.782Z,27.80
2022-08-14T13:19:48.310Z,27.80
2022-08-14T13:22:28.782Z,27.80
2022-08-14T13:24:56.178Z,27.79
2022-08-14T13:27:24.290Z,27.79
2022-08-14T13:29:56.631Z,27.79
2022-08-14T13:32:25.648Z,27.80
2022-08-14T13:34:52.970Z,27.79
2022-08-14T13:37:19.699Z,27.81
2022-08-14T13:39:53.629Z,27.81
2022-08-14T13:42:23.478Z,27.81
2022-08-14T13:44:54.938Z,27.81
2022-08-14T13:47:29.746Z,27.80
2022-08-14T13:50:02.953Z,27.82
2022-08-14T13:52:52.214Z,27.84
2022-08-14T13:55:25.652Z,27.85
2022-08-14T13:58:06.841Z,27.85
2022-08-14T14:00:55.397Z,27.86
2022-08-14T14:03:23.302Z,27.84
2022-08-14T14:05:52.319Z,27.85
2022-08-14T14:08:46.158Z,27.86
2022-08-14T14:11:09.831Z,27.85
2022-08-14T14:13:37.382Z,27.85
2022-08-14T14:16:11.955Z,27.86
2022-08-14T14:18:43.360Z,27.86
2022-08-14T14:21:13.339Z,27.84
2022-08-14T14:23:44.075Z,27.85
2022-08-14T14:26:13.827Z,27.85
2022-08-14T14:28:42.065Z,27.86
2022-08-14T14:31:11.576Z,27.86
2022-08-14T14:33:47.795Z,27.89
2022-08-14T14:36:21.242Z,27.86
2022-08-14T14:38:51.703Z,27.84
2022-08-14T14:41:21.243Z,27.86
2022-08-14T14:43:51.636Z,27.83
2022-08-14T14:46:19.426Z,27.84
2022-08-14T14:48:53.951Z,27.85
2022-08-14T14:51:22.184Z,27.85
2022-08-14T14:53:49.133Z,27.86
2022-08-14T14:56:48.026Z,27.89
2022-08-14T14:59:02.597Z,27.89
2022-08-14T15:01:33.029Z,27.88
2022-08-14T15:04:04.042Z,27.87
2022-08-14T15:06:36.177Z,27.90
2022-08-14T15:09:17.712Z,27.88
2022-08-14T15:11:45.787Z,27.88
2022-08-14T15:14:56.976Z,27.90
2022-08-14T15:17:01.667Z,27.88
2022-08-14T15:19:28.745Z,27.86
2022-08-14T15:21:55.727Z,27.87
2022-08-14T15:24:26.660Z,27.86
2022-08-14T15:26:53.820Z,27.85
2022-08-14T15:29:21.313Z,27.84
2022-08-14T15:31:48.209Z,27.85
2022-08-14T15:34:43.446Z,27.85
2022-08-14T15:37:12.842Z,27.85
2022-08-14T15:39:41.859Z,27.84
2022-08-14T15:42:15.819Z,27.84
2022-08-14T15:44:57.491Z,27.84
2022-08-14T15:47:28.176Z,27.84
2022-08-14T15:49:56.958Z,27.83
2022-08-14T15:52:32.461Z,27.83
2022-08-14T15:55:04.422Z,27.83
2022-08-14T15:57:32.051Z,27.82
2022-08-14T16:00:43.861Z,27.86
2022-08-14T16:03:11.822Z,27.85
2022-08-14T16:05:38.900Z,27.85
2022-08-14T16:08:28.956Z,27.82
2022-08-14T16:10:55.471Z,27.86
2022-08-14T16:13:39.259Z,27.86
2022-08-14T16:16:34.989Z,27.87
2022-08-14T16:18:59.813Z,27.87
2022-08-14T16:21:31.751Z,27.85
2022-08-14T16:23:59.952Z,27.88
2022-08-14T16:26:29.298Z,27.86
2022-08-14T16:29:14.347Z,27.85
2022-08-14T16:31:42.936Z,27.85
2022-08-14T16:34:44.017Z,27.83
2022-08-14T16:37:01.679Z,27.85
2022-08-14T16:39:28.981Z,27.86
2022-08-14T16:41:58.376Z,27.84
2022-08-14T16:44:33.795Z,27.83
2022-08-14T16:47:03.174Z,27.84
2022-08-14T16:49:35.359Z,27.82
2022-08-14T16:52:25.598Z,27.82
2022-08-14T16:55:06.968Z,27.81
2022-08-14T16:57:34.441Z,27.82
2022-08-14T17:00:07.399Z,27.81
2022-08-14T17:02:47.419Z,27.81
2022-08-14T17:05:17.181Z,27.80
2022-08-14T17:08:42.708Z,27.79
2022-08-14T17:10:59.864Z,27.78
2022-08-14T17:13:58.717Z,27.79
2022-08-14T17:16:24.259Z,27.78
2022-08-14T17:18:55.541Z,27.77
2022-08-14T17:21:31.270Z,27.78
2022-08-14T17:24:57.533Z,27.79
2022-08-14T17:26:55.000Z,27.78
2022-08-14T17:29:22.475Z,27.80
2022-08-14T17:32:03.642Z,27.76
2022-08-14T17:34:44.508Z,27.77
2022-08-14T17:37:23.492Z,27.78
2022-08-14T17:40:19.863Z,27.76
2022-08-14T17:42:53.390Z,27.76
2022-08-14T17:45:28.722Z,27.76
2022-08-14T17:49:16.349Z,27.75
2022-08-14T17:51:01.018Z,27.76
2022-08-14T17:53:30.402Z,27.75
2022-08-14T17:56:03.002Z,27.76
2022-08-14T17:58:41.648Z,27.75
2022-08-14T18:01:12.804Z,27.75
2022-08-14T18:03:49.956Z,27.75
2022-08-14T18:06:38.211Z,27.74
2022-08-14T18:09:24.725Z,27.74
2022-08-14T18:11:53.400Z,27.76
2022-08-14T18:14:32.060Z,27.77
2022-08-14T18:17:02.187Z,27.76
2022-08-14T18:19:30.337Z,27.75
2022-08-14T18:21:58.122Z,27.75
2022-08-14T18:24:29.318Z,27.74
2022-08-14T18:27:01.930Z,27.76
2022-08-14T18:29:31.468Z,27.75
2022-08-14T18:31:59.121Z,27.74
2022-08-14T18:34:35.085Z,27.74
2022-08-14T18:37:16.960Z,27.74
2022-08-14T18:40:02.181Z,27.75
2022-08-14T18:42:34.756Z,27.76
2022-08-14T18:45:01.950Z,27.73
2022-08-14T18:48:03.425Z,27.73
2022-08-14T18:50:27.507Z,27.72
2022-08-14T18:53:04.963Z,27.72
2022-08-14T18:55:33.759Z,27.73
2022-08-14T18:58:27.792Z,27.73
2022-08-14T19:00:58.918Z,27.73
2022-08-14T19:03:36.375Z,27.72
2022-08-14T19:06:05.269Z,27.74
2022-08-14T19:08:38.712Z,27.72
2022-08-14T19:11:08.347Z,27.72
2022-08-14T19:13:48.700Z,27.73
2022-08-14T19:16:23.275Z,27.73
2022-08-14T19:19:00.026Z,27.73
2022-08-14T19:21:35.322Z,27.73
2022-08-14T19:24:29.721Z,27.72
2022-08-14T19:26:54.742Z,27.74
2022-08-14T19:29:24.636Z,27.74
2022-08-14T19:31:56.526Z,27.72
2022-08-14T19:34:36.520Z,27.72
2022-08-14T19:37:09.983Z,27.71
2022-08-14T19:39:54.029Z,27.72
2022-08-14T19:42:28.251Z,27.70
2022-08-14T19:44:57.967Z,27.72
2022-08-14T19:47:41.081Z,27.71
2022-08-14T19:50:37.892Z,27.71
2022-08-14T19:53:22.444Z,27.71
2022-08-14T19:55:59.819Z,27.70
2022-08-14T19:58:55.049Z,27.69
2022-08-14T20:01:25.999Z,27.70
2022-08-14T20:04:00.341Z,27.72
2022-08-14T20:06:36.558Z,27.72
2022-08-14T20:11:08.413Z,27.72
2022-08-14T20:12:04.530Z,27.73
2022-08-14T20:14:36.434Z,27.74
2022-08-14T20:17:07.003Z,27.73
2022-08-14T20:19:38.027Z,27.71
2022-08-14T20:22:37.354Z,27.71
2022-08-14T20:24:56.637Z,27.72
2022-08-14T20:27:33.849Z,27.70
2022-08-14T20:30:28.896Z,27.72
2022-08-14T20:32:52.009Z,27.70
2022-08-14T20:35:35.185Z,27.70
2022-08-14T20:38:30.970Z,27.70
2022-08-14T20:41:01.467Z,27.71
2022-08-14T20:43:52.989Z,27.73
2022-08-14T20:46:29.826Z,27.72
2022-08-14T20:48:58.514Z,27.71
2022-08-14T20:51:36.484Z,27.70
2022-08-14T20:54:05.249Z,27.70
2022-08-14T20:56:33.875Z,27.70
2022-08-14T20:59:17.348Z,27.70
2022-08-14T21:02:28.418Z,27.71
2022-08-14T21:04:58.118Z,27.74
2022-08-14T21:07:36.714Z,27.78
2022-08-14T21:10:33.303Z,27.76
2022-08-14T21:14:18.732Z,27.74
2022-08-14T21:15:57.415Z,27.72
2022-08-14T21:18:32.951Z,27.71
2022-08-14T21:21:04.611Z,27.71
2022-08-14T21:23:55.391Z,27.73
2022-08-14T21:26:50.548Z,27.72
2022-08-14T21:29:11.666Z,27.72
2022-08-14T21:31:39.877Z,27.73
2022-08-14T21:34:27.270Z,27.71
2022-08-14T21:36:54.878Z,27.71
2022-08-14T21:39:24.142Z,27.69
2022-08-14T21:41:58.346Z,27.71
2022-08-14T21:44:43.005Z,27.69
2022-08-14T21:47:10.437Z,27.67
2022-08-14T21:49:38.849Z,27.66
2022-08-14T21:52:50.239Z,27.69
2022-08-14T21:55:00.130Z,27.67
2022-08-14T21:57:55.882Z,27.69
2022-08-14T22:00:35.193Z,27.66
2022-08-14T22:03:05.827Z,27.69
2022-08-14T22:05:32.629Z,27.68
2022-08-14T22:08:12.083Z,27.70
2022-08-14T22:10:40.534Z,27.67
2022-08-14T22:13:08.220Z,27.66
2022-08-14T22:15:43.834Z,27.66
2022-08-14T22:18:20.228Z,27.71
2022-08-14T22:20:48.338Z,27.67
2022-08-14T22:23:21.693Z,27.64
2022-08-14T22:25:50.379Z,27.62
2022-08-14T22:28:21.103Z,27.62
2022-08-14T22:30:55.214Z,27.62
2022-08-14T22:33:30.638Z,27.63
2022-08-14T22:35:58.266Z,27.62
2022-08-14T22:38:37.140Z,27.62
2022-08-14T22:41:26.949Z,27.62
2022-08-14T22:43:54.229Z,27.59
2022-08-14T22:46:21.473Z,27.62
2022-08-14T22:48:49.608Z,27.61
2022-08-14T22:51:18.294Z,27.61
2022-08-14T22:53:46.511Z,27.61
2022-08-14T22:56:20.727Z,27.60
2022-08-14T22:58:53.660Z,27.59
2022-08-14T23:01:24.528Z,27.58
2022-08-14T23:04:11.956Z,27.57
2022-08-14T23:07:05.099Z,27.55
2022-08-14T23:09:34.949Z,27.61
2022-08-14T23:12:04.105Z,27.57
2022-08-14T23:14:31.066Z,27.57
2022-08-14T23:16:58.059Z,27.58
2022-08-14T23:19:33.774Z,27.59
2022-08-14T23:22:02.348Z,27.60
2022-08-14T23:24:30.861Z,27.57
2022-08-14T23:26:58.339Z,27.55
2022-08-14T23:29:25.465Z,27.53
2022-08-14T23:31:52.672Z,27.55
2022-08-14T23:34:21.755Z,27.52
2022-08-14T23:36:54.327Z,27.54
2022-08-14T23:39:32.918Z,27.51
2022-08-14T23:42:06.216Z,27.52
2022-08-14T23:44:37.130Z,27.50
2022-08-14T23:47:10.703Z,27.49
2022-08-14T23:50:01.347Z,27.49
2022-08-14T23:52:50.426Z,27.45
2022-08-14T23:55:14.699Z,27.49
2022-08-14T23:57:44.067Z,27.45
